Flight Track Log - Related Links

Times and Time Zones

All times are in EDT time to prevent confusion due to time zone crossing. See the SKW4623 flight status page for this flight to view local times or setup timezone preferences in your user account.

Time Position Orientation Groundspeed Altitude Reporting Facility
EDT Latitude Longitude Course Direction KTS MPH feet Rate Location/Type
08:28AM 41.9333 -87.8667 270° West 214 246 3,000  Level Chicago TRACON
08:29AM 41.8833 -87.9167 217° Southwest 265 305 4,700 2,000 Climbing Chicago TRACON
08:30AM 41.8333 -87.9833 225° Southwest 280 322 6,800 2,286 Climbing Chicago TRACON
08:31AM 42.0942 -88.4871 282° West  Level FlightAware Approximate
08:31AM 41.8167 -88.0833 257° West 292 336 9,500  Level Chicago TRACON
08:32AM 42.1178 -88.6377 289° West  Level FlightAware Approximate
08:32AM 41.8625 -88.2000 298° West 298 343 12,000  Level Chicago Center
08:33AM 42.1500 -88.7834 270° West  Level FlightAware Approximate
08:33AM 41.9183 -88.3142 303° West 342 394 13,800  Level Chicago Center
08:34AM 41.9722 -88.4228 304° West 347 399 16,000 1,854 Climbing Chicago Center
08:35AM 42.0278 -88.5344 304° West 358 412 17,600 1,659 Climbing Chicago Center
08:36AM 42.0861 -88.6511 304° West 364 419 19,400 1,756 Climbing Chicago Center
08:37AM 42.1439 -88.7675 304° West 369 425 21,200 1,610 Climbing Chicago Center
08:38AM 42.1594 -88.8900 280° West 366 421 22,700 1,500 Climbing Chicago Center
08:39AM 42.1561 -89.0603 269° West 374 430 24,300 1,415 Climbing Chicago Center
08:40AM 42.1525 -89.2056 268° West 382 440 25,600 1,220 Climbing Chicago Center
08:41AM 42.1486 -89.3511 268° West 384 442 26,800 1,122 Climbing Chicago Center
08:43AM 42.1444 -89.4994 268° West 390 449 27,900 927 Climbing Chicago Center
08:44AM 42.1397 -89.6500 268° West 397 457 28,700 774 Climbing Chicago Center
08:45AM 42.1350 -89.8039 268° West 406 467 29,500 878 Climbing Chicago Center
08:46AM 42.1306 -89.9608 268° West 413 475 30,500 976 Climbing Chicago Center
08:47AM 42.1247 -90.1147 267° West 413 475 31,500 732 Climbing Chicago Center
08:48AM 42.1189 -90.2758 267° West 413 475 32,000 780 Climbing Chicago Center
08:49AM 42.1158 -90.4344 269° West 419 482 33,100 976 Climbing Chicago Center
08:50AM 42.1100 -90.5856 267° West 413 475 34,000 439 Climbing Chicago Center
08:51AM 42.1025 -90.7681 267° West 410 472 34,000  Level Chicago Center
08:52AM 42.0964 -90.9231 267° West 410 472 34,000  Level Chicago Center
08:53AM 42.0892 -91.0789 266° West 416 479 34,000  Level Chicago Center
08:54AM 42.0828 -91.2367 267° West 418 481 34,000  Level Chicago Center
08:55AM 42.1086 -91.3983 282° West 428 493 34,000  Level Chicago Center
08:56AM 42.1461 -91.5489 289° West 428 493 34,000  Level Chicago Center
08:57AM 42.1825 -91.7011 288° West 428 493 34,000  Level Chicago Center
08:58AM 42.2194 -91.8519 288° West 429 494 34,000  Level Chicago Center
08:59AM 42.2606 -92.0289 287° West 420 483 34,000  Level Chicago Center
09:00AM 42.2972 -92.1778 288° West 419 482 34,000  Level Chicago Center
09:01AM 42.3328 -92.3294 288° West 421 484 34,000  Level Chicago Center
09:02AM 42.3742 -92.5075 288° West 419 482 34,000  Level Minneapolis Center
09:03AM 42.4092 -92.6578 288° West 419 482 34,000  Level Minneapolis Center
09:04AM 42.4442 -92.8094 287° West 423 487 34,000  Level Minneapolis Center
09:05AM 42.4786 -92.9606 287° West 422 486 34,000  Level Chicago Center
09:06AM 42.5100 -93.1114 286° West 422 486 34,000  Level Chicago Center
09:07AM 42.5225 -93.2672 276° West 421 484 34,000  Level Chicago Center
09:08AM 42.5403 -93.4533 277° West 421 484 34,000  Level Minneapolis Center
09:09AM 42.5536 -93.6036 277° West 423 487 34,000  Level Minneapolis Center
09:10AM 42.5667 -93.7614 276° West 424 488 34,000 195 Level Minneapolis Center
09:11AM 42.5825 -93.9258 278° West 424 488 34,400 885 Climbing Minneapolis Center
09:12AM 42.5950 -94.0753 277° West 423 487 35,800 787 Climbing Minneapolis Center
09:13AM 42.6064 -94.2269 276° West 411 473 36,000 98 Climbing Minneapolis Center
09:14AM 42.6114 -94.3794 273° West 407 468 36,000  Level Minneapolis Center
09:15AM 42.6064 -94.5631 268° West 407 468 36,000  Level Minneapolis Center
09:16AM 42.6056 -94.7150 270° West 407 468 36,000  Level Minneapolis Center
09:17AM 42.6028 -94.8700 269° West 407 468 36,000  Level Minneapolis Center
09:18AM 42.6008 -95.0225 269° West 407 468 36,000  Level Minneapolis Center
09:19AM 42.5972 -95.1744 268° West 406 467 36,000  Level Minneapolis Center
09:21AM 42.5842 -95.3244 263° West 403 464 36,000  Level Minneapolis Center
09:22AM 42.5686 -95.4744 262° West 403 464 36,000  Level Minneapolis Center
09:23AM 42.5556 -95.6250 263° West 403 464 36,000  Level Minneapolis Center
09:24AM 42.5506 -95.8083 268° West 403 464 36,000  Level Minneapolis Center
09:25AM 42.5483 -95.9619 269° West 405 466 36,000  Level Minneapolis Center
09:26AM 42.5450 -96.1158 268° West 407 468 36,000  Level Minneapolis Center
09:27AM 42.5431 -96.2686 269° West 408 470 36,000  Level Minneapolis Center
09:28AM 42.5389 -96.4256 268° West 412 474 36,000  Level Minneapolis Center
09:29AM 42.5364 -96.5794 269° West 413 475 36,000  Level Minneapolis Center
09:30AM 42.5325 -96.7369 268° West 414 476 36,000  Level Minneapolis Center
09:31AM 42.5292 -96.8956 268° West 419 482 36,000  Level Minneapolis Center
09:32AM 42.5228 -97.0850 267° West 420 483 36,000  Level Minneapolis Center
09:33AM 42.5200 -97.2447 269° West 421 484 36,000  Level Minneapolis Center
09:34AM 42.5156 -97.4061 268° West 426 490 36,000  Level Minneapolis Center
09:35AM 42.5097 -97.5681 267° West 430 495 36,000  Level Minneapolis Center
09:36AM 42.5058 -97.7319 268° West 433 498 36,000  Level Minneapolis Center
09:37AM 42.5000 -97.9167 268° West 433 498 36,000  Level Minneapolis Center
09:38AM 42.4931 -98.0792 267° West 433 498 36,000  Level Minneapolis Center
09:39AM 42.4878 -98.2422 268° West 433 498 36,000  Level Minneapolis Center
09:40AM 42.4831 -98.4042 268° West 433 498 36,000  Level Minneapolis Center
09:41AM 42.4758 -98.5644 267° West 432 497 36,000  Level Minneapolis Center
09:42AM 42.4681 -98.7256 266° West 432 497 36,000  Level Minneapolis Center
09:43AM 42.4525 -98.8850 263° West 430 495 36,000  Level Minneapolis Center
09:44AM 42.4319 -99.0761 262° West 429 494 36,000  Level Minneapolis Center
09:45AM 42.4161 -99.2353 262° West 429 494 36,000  Level Minneapolis Center
09:46AM 42.3989 -99.3978 262° West 431 496 36,000  Level Minneapolis Center
09:47AM 42.3814 -99.5606 262° West 434 499 36,000  Level Minneapolis Center
09:48AM 42.3633 -99.7236 262° West 435 501 36,000  Level Minneapolis Center
09:49AM 42.3464 -99.8853 262° West 440 506 36,000  Level Denver Center
09:50AM 42.3289 -100.0419 261° West 440 506 36,000  Level Denver Center
09:51AM 42.3117 -100.1975 262° West 440 506 36,000  Level Denver Center
09:52AM 42.2908 -100.3772 261° West 436 502 36,000  Level Denver Center
09:53AM 42.2736 -100.5319 261° West 437 503 36,000  Level Denver Center
09:54AM 42.2528 -100.7128 261° West 437 503 36,000  Level Denver Center
09:55AM 42.2347 -100.8661 261° West 436 502 36,000  Level Denver Center
09:56AM 42.2131 -101.0467 261° West 436 502 36,000  Level Denver Center
09:57AM 42.1953 -101.1994 261° West 436 502 36,000  Level Denver Center
09:58AM 42.1764 -101.3547 261° West 436 502 36,000  Level Denver Center
09:59AM 42.1533 -101.5369 260° West 439 505 36,000  Level Denver Center
10:00AM 42.1336 -101.6919 260° West 439 505 36,000  Level Denver Center
10:01AM 42.1114 -101.8708 261° West 438 504 36,000  Level Denver Center
10:02AM 42.0917 -102.0247 260° West 438 504 36,000  Level Denver Center
10:03AM 42.0689 -102.2044 260° West 438 504 36,000  Level Denver Center
10:04AM 42.0475 -102.3603 260° West 438 504 36,000  Level Denver Center
10:06AM 42.0269 -102.5125 260° West 436 502 36,000  Level Denver Center
10:07AM 42.0036 -102.6897 260° West 434 499 36,000  Level Denver Center
10:08AM 41.9828 -102.8408 260° West 429 494 36,000  Level Denver Center
10:09AM 41.9594 -103.0172 260° West 430 495 36,000  Level Denver Center
10:10AM 41.9383 -103.1692 259° West 430 495 36,000  Level Denver Center
10:11AM 41.9161 -103.3214 259° West 431 496 36,000  Level Denver Center
10:12AM 41.8933 -103.4978 260° West 431 496 36,000  Level Denver Center
10:13AM 41.8889 -103.6511 268° West 431 496 36,000  Level Denver Center
10:14AM 41.8825 -103.8317 267° West 431 496 36,000  Level Denver Center
10:15AM 41.8761 -103.9861 267° West 431 496 36,000  Level Denver Center
10:16AM 41.8714 -104.1403 268° West 432 497 36,000  Level Denver Center
10:17AM 41.8644 -104.3203 267° West 432 497 36,000  Level Denver Center
10:18AM 41.8592 -104.4750 267° West 432 497 36,000  Level Denver Center
10:19AM 41.8519 -104.6572 267° West 433 498 36,000  Level Denver Center
10:20AM 41.8450 -104.8119 267° West 434 499 36,000  Level Denver Center
10:21AM 41.8375 -104.9947 267° West 435 501 36,000  Level Denver Center
10:22AM 41.8314 -105.1497 267° West 435 501 36,000  Level Denver Center
10:23AM 41.8239 -105.3044 266° West 435 501 36,000  Level Denver Center
10:24AM 41.8150 -105.4842 266° West 434 499 36,000  Level Denver Center
10:25AM 41.8075 -105.6411 266° West 434 499 36,000  Level Denver Center
10:26AM 41.7992 -105.8217 267° West 436 502 36,000  Level Denver Center
10:27AM 41.7914 -105.9764 266° West 436 502 36,000  Level Denver Center
10:28AM 41.7819 -106.1569 266° West 436 502 36,000  Level Denver Center
10:29AM 41.7733 -106.3119 266° West 436 502 36,000  Level Denver Center
10:30AM 41.7622 -106.4900 265° West 433 498 36,000  Level Denver Center
10:31AM 41.7539 -106.6433 266° West 433 498 36,000  Level Denver Center
10:32AM 41.7436 -106.8233 266° West 434 499 36,000  Level Denver Center
10:33AM 41.7342 -106.9769 265° West 433 498 36,000  Level Denver Center
10:34AM 41.7236 -107.1583 266° West 436 502 36,000  Level Denver Center
10:35AM 41.7125 -107.3142 265° West 437 503 36,000  Level Denver Center
10:36AM 41.7014 -107.4956 265° West 438 504 36,000  Level Denver Center
10:38AM 41.6906 -107.6517 265° West 439 505 36,000  Level Denver Center
10:39AM 41.6778 -107.8358 265° West 442 509 36,000  Level Denver Center
10:39AM 41.6731 -107.9147 265° West 441 507 36,000  Level Salt Lake Center
10:40AM 41.6619 -108.0728 265° West 446 513 36,000  Level Salt Lake Center
10:41AM 41.6467 -108.2578 264° West 446 513 36,000  Level Salt Lake Center
10:42AM 41.6358 -108.4172 265° West 448 516 36,000  Level Salt Lake Center
10:43AM 41.6231 -108.6019 265° West 448 516 36,000  Level Salt Lake Center
10:44AM 41.6114 -108.7589 264° West 448 516 36,000  Level Salt Lake Center
10:45AM 41.5975 -108.9419 264° West 448 516 36,000  Level Salt Lake Center
10:46AM 41.5994 -109.0981 271° West 447 514 36,000  Level Salt Lake Center
10:47AM 41.6133 -109.2803 276° West 448 516 36,000  Level Salt Lake Center
10:48AM 41.6242 -109.4342 275° West 443 510 36,000  Level Salt Lake Center
10:49AM 41.6381 -109.6183 276° West 443 510 36,000  Level Salt Lake Center
10:50AM 41.6494 -109.7744 276° West 444 511 36,000 -194 Level Salt Lake Center
10:51AM 41.6631 -109.9597 276° West 446 513 35,600 -532 Descending Salt Lake Center
10:52AM 41.6747 -110.1189 276° West 447 514 34,900 -823 Descending Salt Lake Center
10:54AM 41.6878 -110.3025 275° West 447 514 33,900 -1,742 Descending Salt Lake Center
10:55AM 41.6986 -110.4619 275° West 447 514 31,300 -1,887 Descending Salt Lake Center
10:56AM 41.7128 -110.6539 276° West 460 529 30,000 -629 Descending Salt Lake Center
10:57AM 41.7239 -110.8194 275° West 467 537 30,000  Level Salt Lake Center
10:58AM 41.7361 -110.9950 275° West 467 537 30,000 -387 Level Salt Lake Center
10:59AM 41.7486 -111.1667 276° West 467 537 29,200 -2,129 Descending Salt Lake Center
11:00AM 41.7614 -111.3714 275° West 465 535 25,600 -3,097 Descending Salt Lake Center
11:01AM 41.7719 -111.5336 275° West 447 514 22,800 -2,592 Descending Salt Lake Center
11:02AM 41.7806 -111.6850 274° West 417 480 20,200 -2,400 Descending Salt Lake Center
11:03AM 41.7881 -111.8289 274° West 393 452 17,800 -2,226 Descending Salt Lake Center
11:04AM 41.7753 -111.9667 263° West 389 448 15,600 -1,906 Descending Salt Lake Center
11:04AM 41.7325 -112.0019 212° Southwest 383 441 15,100 -484 Descending Salt Lake Center
11:05AM 41.6833 -112.0281 202° Southwest 387 445 15,100 -923 Level Salt Lake Center
11:06AM 41.5733 -112.0367 183° South 374 430 13,700 -1,645 Descending Salt Lake Center
11:06AM 41.5603 -112.0472 211° Southwest 371 427 13,400 -1,433 Descending Salt Lake Center
11:07AM 41.4697 -112.0464 180° South 349 402 12,100 -661 Descending Salt Lake Center
11:08AM 41.3722 -112.0425 178° South 346 398 12,100 -470 Level Salt Lake Center
11:09AM 41.2828 -112.0361 177° South 349 402 11,200 -882 Descending Salt Lake Center
11:09AM 41.2706 -112.0400 193° South 348 400 11,100 -982 Descending Salt Lake Center
11:10AM 41.2042 -112.0314 174° South 302 348 10,300 -968 Descending Salt Lake Center
11:10AM 41.1869 -112.0342 187° South 305 351 10,100 -492 Descending Salt Lake Center
11:11AM 41.1306 -112.0281 175° South 248 285 9,800 -581 Descending Salt Lake Center
11:11AM 41.1033 -112.0283 180° South 251 289 9,500 -984 Descending Salt Lake Center
11:12AM 41.0628 -112.0228 174° South 235 270 8,800 -952 Descending Salt Lake Center
11:12AM 41.0369 -112.0239 182° South 245 282 8,500 -1,100 Descending Salt Lake Center
11:13AM 40.9956 -112.0200 176° South 244 281 7,700 -1,161 Descending Salt Lake Center
11:13AM 40.9700 -112.0206 181° South 245 282 7,300 -885 Descending Salt Lake Center
11:14AM 40.9275 -112.0147 174° South 220 253 6,800 -871 Descending Salt Lake Center
11:14AM 40.9131 -112.0125 173° South 204 235 6,400 -1,180 Descending Salt Lake Center
11:15AM 40.8792 -112.0086 175° South 165 190 5,600 -581 Descending Salt Lake Center
11:15AM 40.8553 -112.0056 174° South 175 201 5,800 1,091 Climbing Salt Lake Center
11:16AM 40.8306 -112.0025 175° South 180 207 6,600 1,839 Climbing Salt Lake Center
11:16AM 40.8008 -111.9964 171° South 196 226 7,700 1,233 Climbing Salt Lake Center
11:17AM 40.7775 -112.0403 235° Southwest 240 276 8,100 290 Climbing Salt Lake Center
11:17AM 40.7881 -112.0644 300° West 235 270 8,000  Descending Salt Lake Center
11:18AM 40.8189 -112.1197 306° West 249 287 8,100 95 Climbing Salt Lake Center
11:18AM 40.8328 -112.1242 346° North 238 274 8,100 -109 Level Salt Lake Center
11:19AM 40.8772 -112.1197 North 228 262 8,000 -290 Descending Salt Lake Center
11:19AM 40.8956 -112.1131 15° North 226 260 7,800 -1,100 Descending Salt Lake Center
11:20AM 40.9133 -112.0736 59° Northeast 196 226 6,900 -1,258 Descending Salt Lake Center
11:20AM 40.9078 -112.0503 107° East 201 231 6,500 -1,082 Descending Salt Lake Center
11:21AM 40.8847 -112.0153 131° Southeast 189 217 5,800 -1,065 Descending Salt Lake Center
11:21AM 40.8606 -112.0067 165° South 177 204 5,400 -787 Descending Salt Lake Center
11:22AM 40.8417 -112.0042 174° South 150 173 5,000 -774 Descending Salt Lake Center
11:23AM 40.8189 -112.0003 173° South 153 176 4,600 -447 Descending Salt Lake Center
11:24AM 40.7881 -111.9975 176° South 125 144 4,300 -290 Descending Salt Lake Center

Login

Don't have an account? Register now (free) for customized features, flight alerts, and more!